Time;durP1;ratioP1;P1;durP2;ratioP2;P2;SDS_P1;SDS_P2;PMS_P1;PMS_P2;Temp;Humidity;BMP_temperature;BMP_pressure;BME280_temperature;BME280_humidity;BME280_pressure;Samples;Min_cycle;Max_cycle;Signal;HPM_P1;HPM_P2
2022/08/14 00:00:40;;;;;;;0.53;0.50;;;19.00;76.30;;;;;;5113857;28;20478;-79
2022/08/14 00:03:06;;;;;;;0.90;0.60;;;18.90;76.40;;;;;;5113961;28;20447;-79
2022/08/14 00:05:35;;;;;;;0.93;0.93;;;18.90;76.40;;;;;;5113927;28;20474;-79
2022/08/14 00:08:01;;;;;;;1.47;1.30;;;18.90;76.40;;;;;;5113907;28;20439;-79
2022/08/14 00:10:28;;;;;;;0.90;0.77;;;18.90;76.70;;;;;;5113376;28;20486;-79
2022/08/14 00:12:55;;;;;;;1.10;1.10;;;18.90;77.20;;;;;;5113853;28;20466;-80
2022/08/14 00:15:25;;;;;;;0.87;0.63;;;18.80;77.00;;;;;;5113548;28;20451;-80
2022/08/14 00:17:53;;;;;;;0.70;0.70;;;18.80;77.00;;;;;;5113831;28;20445;-79
2022/08/14 00:20:21;;;;;;;0.70;0.70;;;18.80;77.10;;;;;;5113682;28;20466;-79
2022/08/14 00:22:50;;;;;;;0.60;0.60;;;18.80;77.00;;;;;;5113455;28;20450;-79
2022/08/14 00:25:16;;;;;;;1.23;0.67;;;18.80;77.00;;;;;;5113751;28;20442;-79
2022/08/14 00:27:43;;;;;;;0.60;0.60;;;18.80;77.10;;;;;;5113738;28;20455;-79
2022/08/14 00:30:12;;;;;;;2.50;0.97;;;18.80;77.40;;;;;;5113282;28;20812;-79
2022/08/14 00:32:39;;;;;;;0.93;0.73;;;18.80;77.30;;;;;;5113361;28;20965;-79
2022/08/14 00:35:07;;;;;;;0.60;0.60;;;18.90;77.70;;;;;;5113662;28;20926;-79
2022/08/14 00:37:37;;;;;;;0.60;0.53;;;18.80;77.60;;;;;;5113629;28;20786;-79
2022/08/14 00:40:08;;;;;;;1.03;0.90;;;18.90;78.10;;;;;;5113488;28;20451;-79
2022/08/14 00:42:34;;;;;;;1.37;1.07;;;18.80;77.60;;;;;;5113537;28;20473;-79
2022/08/14 00:45:01;;;;;;;0.80;0.80;;;18.90;78.20;;;;;;5113560;28;20439;-79
2022/08/14 00:47:28;;;;;;;0.73;0.60;;;18.80;78.20;;;;;;5113526;28;20454;-79
2022/08/14 00:49:56;;;;;;;0.67;0.67;;;18.70;78.50;;;;;;5113425;28;20500;-79
2022/08/14 00:52:24;;;;;;;1.43;0.90;;;18.70;79.10;;;;;;5113498;28;20470;-79
2022/08/14 00:54:53;;;;;;;0.60;0.60;;;18.70;79.40;;;;;;5113524;28;20517;-79
2022/08/14 00:57:22;;;;;;;0.70;0.60;;;18.60;79.00;;;;;;5113417;28;20451;-79
2022/08/14 00:59:49;;;;;;;1.50;0.70;;;18.60;79.20;;;;;;5113108;28;20942;-79
2022/08/14 01:02:17;;;;;;;0.70;0.70;;;18.50;79.20;;;;;;5113285;28;20486;-79
2022/08/14 01:04:45;;;;;;;1.43;0.63;;;18.50;79.70;;;;;;5113361;28;20454;-79
2022/08/14 01:07:19;;;;;;;0.60;0.60;;;18.40;80.00;;;;;;5113442;28;20809;-79
2022/08/14 01:09:48;;;;;;;1.00;0.67;;;18.40;80.40;;;;;;5115728;28;20427;-79
2022/08/14 01:12:17;;;;;;;0.87;0.80;;;18.40;80.20;;;;;;5117070;28;20451;-79
2022/08/14 01:14:45;;;;;;;0.83;0.77;;;18.30;80.30;;;;;;5117068;28;20500;-79
2022/08/14 01:17:12;;;;;;;0.60;0.60;;;18.30;80.30;;;;;;5116765;27;20941;-79
2022/08/14 01:22:24;;;;;;;0.90;0.90;;;18.20;80.40;;;;;;5116943;28;20450;-79
2022/08/14 01:24:52;;;;;;;1.67;0.87;;;18.10;80.70;;;;;;5116896;28;20447;-79
2022/08/14 01:27:20;;;;;;;0.80;0.80;;;18.10;80.80;;;;;;5116497;28;20945;-79
2022/08/14 01:29:52;;;;;;;0.70;0.70;;;18.00;80.50;;;;;;5116750;28;20811;-79
2022/08/14 01:32:20;;;;;;;0.90;0.90;;;18.00;80.60;;;;;;5116680;28;20485;-79
2022/08/14 01:34:49;;;;;;;0.80;0.60;;;18.00;81.50;;;;;;5116355;28;20451;-79
2022/08/14 01:37:15;;;;;;;0.80;0.60;;;18.00;81.50;;;;;;5116666;28;20492;-79
2022/08/14 01:39:44;;;;;;;0.73;0.73;;;18.00;81.60;;;;;;5116577;28;20473;-79
2022/08/14 01:42:10;;;;;;;1.07;0.90;;;18.00;81.60;;;;;;5116421;28;20570;-79
2022/08/14 01:44:38;;;;;;;2.57;1.00;;;18.00;81.50;;;;;;5116149;28;20814;-79
2022/08/14 01:47:11;;;;;;;0.80;0.80;;;17.90;82.00;;;;;;5116452;28;20462;-79
2022/08/14 01:49:37;;;;;;;0.50;0.50;;;17.90;82.00;;;;;;5116469;27;20527;-79
2022/08/14 01:52:04;;;;;;;0.53;0.53;;;17.80;82.20;;;;;;5115982;28;20459;-79
2022/08/14 01:54:31;;;;;;;0.63;0.63;;;17.80;82.40;;;;;;5116332;28;20449;-79
2022/08/14 01:56:59;;;;;;;0.50;0.50;;;17.80;82.60;;;;;;5116258;28;20466;-79
2022/08/14 01:59:31;;;;;;;1.10;0.73;;;17.80;82.40;;;;;;5116275;27;20440;-79
2022/08/14 02:02:00;;;;;;;1.10;0.80;;;17.70;82.90;;;;;;5115762;28;20992;-79
2022/08/14 02:04:29;;;;;;;3.27;0.70;;;17.70;83.00;;;;;;5116112;28;20534;-79
2022/08/14 02:06:57;;;;;;;0.53;0.53;;;17.70;82.60;;;;;;5116105;28;20511;-79
2022/08/14 02:09:24;;;;;;;0.60;0.60;;;17.70;83.10;;;;;;5116026;28;20443;-79
2022/08/14 02:11:52;;;;;;;0.80;0.80;;;17.60;83.20;;;;;;5115512;27;20482;-79
2022/08/14 02:14:21;;;;;;;0.80;0.77;;;17.60;83.00;;;;;;5115929;28;20443;-79
2022/08/14 02:16:51;;;;;;;0.70;0.63;;;17.60;83.40;;;;;;5115834;28;20436;-79
2022/08/14 02:19:21;;;;;;;0.80;0.80;;;17.60;83.30;;;;;;5115805;28;20514;-79
2022/08/14 02:21:50;;;;;;;0.77;0.77;;;17.60;83.20;;;;;;5115615;28;20483;-79
2022/08/14 02:24:19;;;;;;;0.70;0.70;;;17.60;83.50;;;;;;5115740;28;20451;-79
2022/08/14 02:26:48;;;;;;;0.80;0.80;;;17.60;83.70;;;;;;5115657;28;20538;-79
2022/08/14 02:29:18;;;;;;;1.63;0.77;;;17.50;83.10;;;;;;5115636;28;20453;-79
2022/08/14 02:31:51;;;;;;;0.63;0.60;;;17.50;83.70;;;;;;5115746;27;20517;-79
2022/08/14 02:34:21;;;;;;;0.70;0.70;;;17.50;83.80;;;;;;5115618;28;20431;-79
2022/08/14 02:36:51;;;;;;;1.47;0.70;;;17.40;84.60;;;;;;5115511;28;20435;-79
2022/08/14 02:39:18;;;;;;;1.30;0.80;;;17.40;84.50;;;;;;5115461;28;20450;-79
2022/08/14 02:41:50;;;;;;;0.80;0.80;;;17.30;84.70;;;;;;5115230;28;20489;-79
2022/08/14 02:44:19;;;;;;;0.60;0.60;;;17.30;85.10;;;;;;5115058;28;20960;-79
2022/08/14 02:46:48;;;;;;;0.63;0.63;;;17.30;85.30;;;;;;5115286;28;20445;-79
2022/08/14 02:49:15;;;;;;;0.50;0.50;;;17.30;85.70;;;;;;5115198;27;20447;-79
2022/08/14 02:51:42;;;;;;;0.60;0.60;;;17.30;85.60;;;;;;5114829;27;20974;-79
2022/08/14 02:54:09;;;;;;;0.60;0.60;;;17.20;85.70;;;;;;5115164;28;20454;-79
2022/08/14 02:56:37;;;;;;;0.67;0.67;;;17.20;85.70;;;;;;5115076;28;20439;-79
2022/08/14 02:59:06;;;;;;;1.00;0.90;;;17.20;86.30;;;;;;5114693;28;20494;-79
2022/08/14 03:01:34;;;;;;;1.27;0.77;;;17.10;86.20;;;;;;5114543;28;20990;-79
2022/08/14 03:04:03;;;;;;;0.67;0.67;;;17.10;85.90;;;;;;5114990;28;20466;-79
2022/08/14 03:06:30;;;;;;;1.73;0.70;;;17.10;85.70;;;;;;5114926;28;20477;-79
2022/08/14 03:08:58;;;;;;;2.10;1.10;;;17.10;86.10;;;;;;5114891;28;20447;-79
2022/08/14 03:11:25;;;;;;;0.77;0.70;;;17.10;86.20;;;;;;5114447;28;20963;-79
2022/08/14 03:13:52;;;;;;;0.47;0.47;;;17.00;86.40;;;;;;5114803;28;20447;-79
2022/08/14 03:16:22;;;;;;;1.27;0.77;;;17.00;86.50;;;;;;5114713;28;20443;-79
2022/08/14 03:18:52;;;;;;;0.83;0.73;;;17.00;86.50;;;;;;5114372;28;20930;-79
2022/08/14 03:21:23;;;;;;;0.77;0.77;;;17.00;87.00;;;;;;5114233;28;20474;-79
2022/08/14 03:23:58;;;;;;;0.80;0.80;;;17.00;86.90;;;;;;5114588;28;20443;-79
2022/08/14 03:26:26;;;;;;;1.20;0.90;;;16.90;86.60;;;;;;5114535;28;20813;-79
2022/08/14 03:28:53;;;;;;;0.83;0.60;;;16.90;86.90;;;;;;5114466;28;20443;-79
2022/08/14 03:31:22;;;;;;;2.20;1.00;;;16.90;87.20;;;;;;5113901;28;20471;-79
2022/08/14 03:33:50;;;;;;;0.90;0.80;;;16.80;87.40;;;;;;5114409;28;20538;-79
2022/08/14 03:36:19;;;;;;;1.00;0.80;;;16.80;87.80;;;;;;5114084;28;20942;-79
2022/08/14 03:38:50;;;;;;;0.60;0.60;;;16.70;88.00;;;;;;5114335;28;20456;-79
2022/08/14 03:41:19;;;;;;;1.10;1.00;;;16.70;87.90;;;;;;5114142;28;20462;-79
2022/08/14 03:43:47;;;;;;;1.00;1.00;;;16.70;88.10;;;;;;5114235;28;20451;-79
2022/08/14 03:46:14;;;;;;;0.70;0.60;;;16.70;88.00;;;;;;5114221;28;20438;-79
2022/08/14 03:48:42;;;;;;;2.10;0.90;;;16.70;88.70;;;;;;5113888;28;20926;-79
2022/08/14 03:51:12;;;;;;;1.27;0.80;;;16.60;88.20;;;;;;5114104;28;20467;-79
2022/08/14 03:53:41;;;;;;;0.80;0.80;;;16.60;89.10;;;;;;5114060;28;20445;-79
2022/08/14 03:56:12;;;;;;;1.30;1.10;;;16.60;89.00;;;;;;5114101;28;20453;-79
2022/08/14 03:58:40;;;;;;;0.70;0.70;;;16.50;88.90;;;;;;5114081;28;20436;-79
2022/08/14 04:01:08;;;;;;;1.30;1.00;;;16.50;88.80;;;;;;5113933;28;20465;-79
2022/08/14 04:03:35;;;;;;;0.60;0.60;;;16.50;88.80;;;;;;5113946;28;20478;-79
2022/08/14 04:06:02;;;;;;;0.60;0.60;;;16.50;89.30;;;;;;5113694;28;20942;-79
2022/08/14 04:08:29;;;;;;;0.60;0.60;;;16.50;89.60;;;;;;5113917;28;20447;-79
2022/08/14 04:10:55;;;;;;;0.90;0.90;;;16.40;89.90;;;;;;5113366;28;21062;-79
2022/08/14 04:13:24;;;;;;;1.33;1.00;;;16.40;90.00;;;;;;5113831;28;20439;-79
2022/08/14 04:15:51;;;;;;;1.07;0.97;;;16.40;89.30;;;;;;5113537;28;20500;-79
2022/08/14 04:18:17;;;;;;;2.20;0.80;;;16.40;89.60;;;;;;5113870;28;20424;-79
2022/08/14 04:20:44;;;;;;;1.40;0.80;;;16.40;90.00;;;;;;5113452;28;20987;-79
2022/08/14 04:23:12;;;;;;;3.73;1.00;;;16.40;90.20;;;;;;5113697;28;20483;-79
2022/08/14 04:25:39;;;;;;;1.40;0.90;;;16.30;90.30;;;;;;5113491;28;20938;-79
2022/08/14 04:28:08;;;;;;;1.77;1.23;;;16.40;90.40;;;;;;5113768;28;20862;-79
2022/08/14 04:30:38;;;;;;;0.83;0.83;;;16.40;90.30;;;;;;5113656;28;20498;-79
2022/08/14 04:33:05;;;;;;;1.20;0.90;;;16.40;90.10;;;;;;5113691;28;20439;-79
2022/08/14 04:35:32;;;;;;;0.70;0.70;;;16.40;90.20;;;;;;5113677;28;20443;-79
2022/08/14 04:43:37;;;;;;;1.20;0.80;;;16.50;90.40;;;;;;5113842;28;20450;-79
2022/08/14 04:46:07;;;;;;;0.90;0.90;;;16.50;90.30;;;;;;5117704;28;20487;-79
2022/08/14 04:48:34;;;;;;;1.10;1.00;;;16.50;90.40;;;;;;5117646;27;20454;-79
2022/08/14 04:51:02;;;;;;;5.63;0.83;;;16.60;90.40;;;;;;5117490;28;20462;-79
2022/08/14 04:53:30;;;;;;;14.20;1.20;;;16.60;90.60;;;;;;5117467;28;20446;-79
2022/08/14 04:55:57;;;;;;;0.97;0.70;;;16.70;90.70;;;;;;5117484;28;20533;-79
2022/08/14 04:58:26;;;;;;;1.50;1.30;;;16.80;90.90;;;;;;5117462;28;20439;-79
2022/08/14 05:00:55;;;;;;;0.80;0.70;;;16.80;90.70;;;;;;5117337;28;20462;-79
2022/08/14 05:03:27;;;;;;;1.13;0.70;;;16.90;90.80;;;;;;5117307;27;20481;-79
2022/08/14 05:05:55;;;;;;;0.60;0.60;;;17.00;90.50;;;;;;5117359;28;20436;-79
2022/08/14 05:08:22;;;;;;;0.70;0.60;;;17.00;90.50;;;;;;5117210;28;20447;-79
2022/08/14 05:10:51;;;;;;;1.00;0.90;;;17.10;90.60;;;;;;5116795;28;20556;-79
2022/08/14 05:13:19;;;;;;;2.10;1.47;;;17.20;90.40;;;;;;5117917;28;20450;-79
2022/08/14 05:15:46;;;;;;;3.50;1.10;;;17.20;90.50;;;;;;5117080;28;20438;-79
2022/08/14 05:18:14;;;;;;;0.67;0.67;;;17.30;90.50;;;;;;5117075;28;20450;-79
2022/08/14 05:20:45;;;;;;;0.70;0.70;;;17.30;90.50;;;;;;5116930;28;20462;-79
2022/08/14 05:23:11;;;;;;;0.87;0.73;;;17.30;90.40;;;;;;5116946;28;20828;-79
2022/08/14 05:25:38;;;;;;;1.30;1.20;;;17.40;90.60;;;;;;5116610;28;20934;-79
2022/08/14 05:28:10;;;;;;;1.03;1.03;;;17.40;90.50;;;;;;5116866;28;20450;-79
2022/08/14 05:30:37;;;;;;;0.90;0.90;;;17.40;90.50;;;;;;5116424;28;20982;-79
2022/08/14 05:33:04;;;;;;;1.13;0.80;;;17.50;90.80;;;;;;5116752;28;20439;-79
2022/08/14 05:35:31;;;;;;;3.77;0.90;;;17.50;91.00;;;;;;5116680;28;20451;-79
2022/08/14 05:38:00;;;;;;;1.20;1.10;;;17.60;91.40;;;;;;5116649;28;20455;-79
2022/08/14 05:40:27;;;;;;;4.13;1.40;;;17.60;91.00;;;;;;5116522;28;20509;-80
2022/08/14 05:42:54;;;;;;;1.23;0.70;;;17.60;90.80;;;;;;5116508;28;20878;-80
2022/08/14 05:45:21;;;;;;;0.70;0.60;;;17.60;90.50;;;;;;5116239;28;21021;-80
2022/08/14 05:47:47;;;;;;;0.70;0.70;;;17.70;90.50;;;;;;5116473;28;20443;-79
2022/08/14 05:50:14;;;;;;;3.47;0.97;;;17.80;90.20;;;;;;5116369;28;20439;-79
2022/08/14 05:52:41;;;;;;;1.03;0.60;;;17.80;89.90;;;;;;5116069;28;20954;-79
2022/08/14 05:55:11;;;;;;;0.93;0.87;;;17.90;90.00;;;;;;5115559;28;20810;-79
2022/08/14 05:57:49;;;;;;;0.70;0.70;;;18.00;90.40;;;;;;5116290;28;20447;-79
2022/08/14 06:00:18;;;;;;;0.90;0.83;;;18.10;90.60;;;;;;5116162;28;20459;-79
2022/08/14 06:02:45;;;;;;;2.20;0.90;;;18.20;90.70;;;;;;5115800;28;21009;-79
2022/08/14 06:05:12;;;;;;;0.70;0.70;;;18.30;90.50;;;;;;5116186;27;20443;-83
2022/08/14 06:07:39;;;;;;;0.80;0.80;;;18.40;90.40;;;;;;5115762;28;20935;-82
2022/08/14 06:10:07;;;;;;;0.63;0.63;;;18.50;89.90;;;;;;5115711;27;20455;-82
2022/08/14 06:12:36;;;;;;;1.07;0.97;;;18.60;89.90;;;;;;5115995;28;20430;-82
2022/08/14 06:15:03;;;;;;;3.20;1.90;;;18.70;89.10;;;;;;5115924;28;20454;-83
2022/08/14 06:17:30;;;;;;;1.33;1.23;;;18.70;89.50;;;;;;5115879;27;20447;-83
2022/08/14 06:19:59;;;;;;;0.87;0.87;;;18.90;88.90;;;;;;5115442;27;20446;-83
2022/08/14 06:22:26;;;;;;;3.00;0.97;;;19.10;88.20;;;;;;5115361;28;20994;-83
2022/08/14 06:24:53;;;;;;;1.47;1.20;;;19.40;87.80;;;;;;5115752;28;20447;-80
2022/08/14 06:27:19;;;;;;;1.03;0.90;;;19.50;87.20;;;;;;5115700;27;20455;-80
2022/08/14 06:29:47;;;;;;;1.10;0.70;;;19.70;86.80;;;;;;5115335;28;20450;-79
2022/08/14 06:32:14;;;;;;;2.70;1.10;;;19.90;86.80;;;;;;5116073;28;20474;-79
2022/08/14 06:34:41;;;;;;;1.33;1.23;;;20.20;86.30;;;;;;5115575;28;20443;-79
2022/08/14 06:37:08;;;;;;;0.80;0.80;;;20.30;86.20;;;;;;5115488;28;20454;-80
2022/08/14 06:39:34;;;;;;;1.37;1.00;;;20.50;85.60;;;;;;5115441;28;20439;-80
2022/08/14 06:42:01;;;;;;;1.33;1.10;;;20.70;86.30;;;;;;5115345;28;20462;-80
2022/08/14 06:44:29;;;;;;;1.40;1.30;;;20.80;85.10;;;;;;5115307;28;20478;-80
2022/08/14 06:46:57;;;;;;;1.27;1.13;;;21.10;85.00;;;;;;5115014;28;20933;-79
2022/08/14 06:49:26;;;;;;;2.67;1.00;;;21.30;84.70;;;;;;5115298;28;20451;-79
2022/08/14 06:51:52;;;;;;;1.67;0.90;;;21.50;83.50;;;;;;5115206;27;20466;-80
2022/08/14 06:54:19;;;;;;;1.07;0.97;;;21.70;82.70;;;;;;5115152;28;20529;-80
2022/08/14 06:56:46;;;;;;;2.00;1.43;;;21.90;82.10;;;;;;5115132;28;20450;-80
2022/08/14 06:59:14;;;;;;;1.13;1.03;;;22.00;82.60;;;;;;5114789;28;20450;-80
2022/08/14 07:07:11;;;;;;;1.17;0.80;;;22.50;80.40;;;;;;5114207;28;20410;-80
2022/08/14 07:09:38;;;;;;;1.13;1.13;;;22.70;78.60;;;;;;5114888;28;20441;-80
2022/08/14 07:12:05;;;;;;;1.37;0.90;;;23.00;74.80;;;;;;5114340;28;20478;-80
2022/08/14 07:14:32;;;;;;;0.70;0.60;;;23.10;75.40;;;;;;5114420;28;20806;-81
2022/08/14 07:16:59;;;;;;;0.70;0.60;;;23.40;72.50;;;;;;5114764;28;20445;-80
2022/08/14 07:19:27;;;;;;;0.90;0.80;;;23.60;71.40;;;;;;5114710;28;20450;-81
2022/08/14 07:21:54;;;;;;;0.67;0.67;;;23.80;70.10;;;;;;5114589;28;20220;-81
2022/08/14 07:24:20;;;;;;;0.80;0.80;;;23.90;69.90;;;;;;5114552;28;20473;-80
2022/08/14 07:26:47;;;;;;;0.73;0.73;;;24.00;68.50;;;;;;5114644;28;20262;-80
2022/08/14 07:29:14;;;;;;;0.90;0.80;;;24.10;68.30;;;;;;5114238;28;20204;-80
2022/08/14 07:31:40;;;;;;;1.13;0.87;;;24.20;68.10;;;;;;5114407;28;20216;-80
2022/08/14 07:34:07;;;;;;;0.80;0.80;;;24.30;68.40;;;;;;5114168;28;20687;-80
2022/08/14 07:36:35;;;;;;;1.00;0.90;;;24.40;68.60;;;;;;5114409;28;20208;-80
2022/08/14 07:39:03;;;;;;;1.33;1.00;;;24.40;68.10;;;;;;5114364;28;20201;-81
2022/08/14 07:41:30;;;;;;;1.02;0.90;;;24.60;68.10;;;;;;5114195;28;20220;-81
2022/08/14 07:43:57;;;;;;;1.02;0.98;;;24.70;68.60;;;;;;5114222;28;20227;-81
2022/08/14 07:46:24;;;;;;;1.00;1.00;;;24.90;67.30;;;;;;5113927;28;20563;-80
2022/08/14 07:48:50;;;;;;;0.80;0.80;;;25.00;66.80;;;;;;5113861;28;20196;-81
2022/08/14 07:51:19;;;;;;;0.65;0.65;;;25.10;65.70;;;;;;5114133;28;20220;-81
2022/08/14 07:53:47;;;;;;;0.70;0.70;;;25.20;66.30;;;;;;5114150;28;20192;-81
2022/08/14 07:56:14;;;;;;;1.30;1.17;;;25.20;66.40;;;;;;5114109;28;20200;-81
2022/08/14 07:58:41;;;;;;;1.45;1.25;;;25.40;66.80;;;;;;5114066;28;20208;-81
2022/08/14 08:01:09;;;;;;;0.93;0.93;;;25.70;66.10;;;;;;5113851;28;20224;-81
2022/08/14 08:03:38;;;;;;;1.10;1.00;;;26.00;65.20;;;;;;5113932;28;20217;-81
2022/08/14 08:06:05;;;;;;;0.90;0.70;;;26.20;65.10;;;;;;5113721;28;20219;-81
2022/08/14 08:08:32;;;;;;;1.00;0.80;;;26.50;63.50;;;;;;5113930;28;20216;-81
2022/08/14 08:11:02;;;;;;;0.70;0.70;;;26.60;63.20;;;;;;5113500;28;20232;-80
2022/08/14 08:13:32;;;;;;;1.23;1.13;;;26.80;62.70;;;;;;5113893;28;20205;-81
2022/08/14 08:16:00;;;;;;;0.75;0.75;;;26.80;61.90;;;;;;5113595;28;20667;-82
2022/08/14 08:18:28;;;;;;;1.40;1.20;;;26.90;62.90;;;;;;5117484;28;20196;-80
2022/08/14 08:20:55;;;;;;;0.70;0.70;;;26.90;62.00;;;;;;5120581;27;20273;-80
2022/08/14 08:23:24;;;;;;;1.05;1.00;;;26.90;61.70;;;;;;5120221;27;20691;-79
2022/08/14 08:25:51;;;;;;;1.20;1.10;;;27.00;60.10;;;;;;5120610;27;20184;-80
2022/08/14 08:28:22;;;;;;;1.35;1.00;;;27.10;60.40;;;;;;5120254;27;20675;-79
2022/08/14 08:30:51;;;;;;;0.90;0.90;;;27.10;59.30;;;;;;5120174;27;20251;-79
2022/08/14 08:33:18;;;;;;;0.93;0.80;;;27.10;60.30;;;;;;5120494;27;20208;-80
2022/08/14 08:35:46;;;;;;;1.30;0.80;;;27.20;59.90;;;;;;5120500;27;20203;-80
2022/08/14 08:38:16;;;;;;;1.83;0.73;;;27.30;59.60;;;;;;5120532;27;20208;-80
2022/08/14 08:40:46;;;;;;;1.60;1.15;;;27.30;58.70;;;;;;5120195;27;20743;-80
2022/08/14 08:43:20;;;;;;;0.88;0.88;;;27.20;59.80;;;;;;5120426;27;20228;-80
2022/08/14 08:45:54;;;;;;;0.70;0.70;;;27.40;59.30;;;;;;5120213;27;20636;-80
2022/08/14 08:48:21;;;;;;;0.77;0.75;;;27.50;59.80;;;;;;5120162;27;20229;-80
2022/08/14 08:50:48;;;;;;;1.55;0.88;;;27.50;58.10;;;;;;5120064;27;20220;-80
2022/08/14 08:53:15;;;;;;;0.68;0.68;;;27.60;57.60;;;;;;5120375;27;20196;-79
2022/08/14 08:55:43;;;;;;;1.17;1.08;;;27.60;57.30;;;;;;5120373;27;20211;-79
2022/08/14 08:58:11;;;;;;;0.70;0.70;;;27.50;57.80;;;;;;5120354;27;20201;-80
2022/08/14 09:00:42;;;;;;;1.67;1.08;;;27.70;57.50;;;;;;5120247;27;20239;-80
2022/08/14 09:03:10;;;;;;;1.20;0.73;;;27.80;57.60;;;;;;5120223;27;20189;-79
2022/08/14 09:05:48;;;;;;;1.15;1.05;;;27.60;57.60;;;;;;5120281;27;20201;-78
2022/08/14 09:08:17;;;;;;;1.05;0.80;;;27.70;57.40;;;;;;5120308;27;20185;-79
2022/08/14 09:10:45;;;;;;;0.75;0.70;;;27.90;58.10;;;;;;5119846;27;20240;-79
2022/08/14 09:13:12;;;;;;;0.95;0.85;;;27.90;57.10;;;;;;5120194;27;20207;-80
2022/08/14 09:15:44;;;;;;;1.08;0.90;;;28.00;57.20;;;;;;5119885;27;20192;-80
2022/08/14 09:18:12;;;;;;;1.17;1.17;;;28.20;56.70;;;;;;5120181;27;20185;-80
2022/08/14 09:20:40;;;;;;;1.58;0.63;;;28.30;56.00;;;;;;5120073;27;20285;-79
2022/08/14 09:23:08;;;;;;;0.85;0.82;;;28.30;55.60;;;;;;5119765;27;20185;-80
2022/08/14 09:25:37;;;;;;;1.10;1.00;;;28.40;55.30;;;;;;5120067;27;20196;-80
2022/08/14 09:28:04;;;;;;;0.70;0.70;;;28.40;55.30;;;;;;5119817;27;20192;-80
2022/08/14 09:30:33;;;;;;;0.70;0.70;;;28.40;55.80;;;;;;5116748;27;20221;-80
2022/08/14 09:33:40;;;;;;;1.58;1.10;;;28.50;55.60;;;;;;5116781;28;20223;-80
2022/08/14 09:36:34;;;;;;;1.80;0.77;;;28.60;55.50;;;;;;5116757;28;20207;-79
2022/08/14 09:39:08;;;;;;;1.20;0.82;;;28.70;54.90;;;;;;5116693;28;20181;-79
2022/08/14 09:41:48;;;;;;;1.27;1.17;;;28.70;54.80;;;;;;5116625;28;20220;-79
2022/08/14 09:44:29;;;;;;;0.80;0.80;;;28.60;54.80;;;;;;5116587;28;20204;-80
2022/08/14 09:46:57;;;;;;;0.60;0.60;;;28.70;54.60;;;;;;5116579;28;20185;-82
2022/08/14 09:49:32;;;;;;;1.35;1.08;;;28.60;54.40;;;;;;5116499;28;20195;-80
2022/08/14 09:52:09;;;;;;;0.73;0.63;;;28.70;55.00;;;;;;5116066;28;20604;-80
2022/08/14 09:54:38;;;;;;;0.95;0.95;;;28.70;54.10;;;;;;5116404;28;20189;-81
2022/08/14 09:57:09;;;;;;;0.98;0.98;;;28.80;54.30;;;;;;5116131;28;20223;-80
2022/08/14 09:59:45;;;;;;;0.82;0.82;;;28.90;54.90;;;;;;5116338;28;20216;-80
2022/08/14 10:02:21;;;;;;;0.88;0.82;;;29.00;53.90;;;;;;5115853;28;20597;-81
2022/08/14 10:04:59;;;;;;;0.80;0.80;;;29.10;53.30;;;;;;5116210;27;20291;-80
2022/08/14 10:07:31;;;;;;;1.80;0.80;;;29.10;52.70;;;;;;5116186;28;20249;-82
2022/08/14 10:09:57;;;;;;;1.15;0.88;;;29.00;52.80;;;;;;5115843;28;20206;-80
2022/08/14 10:12:25;;;;;;;1.17;1.10;;;28.80;53.50;;;;;;5116009;27;20185;-80
2022/08/14 10:14:52;;;;;;;0.80;0.80;;;28.80;52.50;;;;;;5116002;28;20181;-80
2022/08/14 10:17:23;;;;;;;0.73;0.73;;;29.00;52.70;;;;;;5115962;28;20246;-80
2022/08/14 10:19:51;;;;;;;0.95;0.82;;;29.20;52.60;;;;;;5115903;28;20232;-80
2022/08/14 10:22:27;;;;;;;0.93;0.80;;;29.40;52.00;;;;;;5115774;28;20221;-81
2022/08/14 10:24:54;;;;;;;0.77;0.77;;;29.40;51.70;;;;;;5115740;28;20207;-81
2022/08/14 10:27:23;;;;;;;0.70;0.70;;;29.30;52.40;;;;;;5115781;28;20553;-81
2022/08/14 10:29:52;;;;;;;1.63;1.15;;;29.30;51.80;;;;;;5115768;28;20204;-81
2022/08/14 10:32:21;;;;;;;1.02;0.93;;;29.30;52.40;;;;;;5115679;28;20227;-82
2022/08/14 10:34:49;;;;;;;1.48;1.00;;;29.40;51.20;;;;;;5115893;28;20207;-82
2022/08/14 10:37:18;;;;;;;1.00;0.98;;;29.50;51.80;;;;;;5115576;28;20196;-82
2022/08/14 10:40:00;;;;;;;1.95;0.90;;;29.60;51.50;;;;;;5115518;28;20204;-82
2022/08/14 10:42:36;;;;;;;1.10;0.98;;;29.70;52.00;;;;;;5114298;28;20190;-81
2022/08/14 10:45:03;;;;;;;1.40;1.00;;;29.70;52.30;;;;;;5115057;28;20757;-82
2022/08/14 10:47:35;;;;;;;1.02;0.80;;;29.90;51.90;;;;;;5115329;28;20205;-82
2022/08/14 10:50:03;;;;;;;0.95;0.85;;;30.00;51.40;;;;;;5114939;28;20238;-81
2022/08/14 10:52:34;;;;;;;1.05;0.98;;;30.10;50.50;;;;;;5115235;28;20213;-82
2022/08/14 10:55:08;;;;;;;1.02;0.80;;;30.40;50.00;;;;;;5114920;28;20648;-81
2022/08/14 10:57:46;;;;;;;0.85;0.80;;;30.40;49.60;;;;;;5114859;28;20692;-81
2022/08/14 11:00:16;;;;;;;1.00;0.90;;;30.40;48.70;;;;;;5114766;28;20213;-82
2022/08/14 11:02:43;;;;;;;1.00;0.85;;;30.50;46.80;;;;;;5115028;28;20202;-82
2022/08/14 11:05:13;;;;;;;0.95;0.77;;;30.50;46.50;;;;;;5114644;28;20759;-81
2022/08/14 11:07:43;;;;;;;0.93;0.88;;;30.70;46.40;;;;;;5115068;28;20205;-82
2022/08/14 11:10:13;;;;;;;0.80;0.80;;;30.70;46.70;;;;;;5115365;28;20228;-82
2022/08/14 11:12:45;;;;;;;0.90;0.70;;;30.80;47.20;;;;;;5114867;28;20205;-81
2022/08/14 11:15:12;;;;;;;0.77;0.77;;;30.60;47.20;;;;;;5114510;28;20638;-82
2022/08/14 11:17:39;;;;;;;1.13;0.88;;;30.40;47.40;;;;;;5114735;27;20200;-81
2022/08/14 11:20:08;;;;;;;1.15;0.90;;;30.30;48.30;;;;;;5114664;28;20230;-81
2022/08/14 11:22:40;;;;;;;1.05;0.90;;;30.30;47.90;;;;;;5114394;28;20668;-81
2022/08/14 11:25:10;;;;;;;0.75;0.70;;;30.30;46.70;;;;;;5114569;28;20207;-81
2022/08/14 11:27:39;;;;;;;2.65;0.95;;;30.20;46.80;;;;;;5114877;28;20242;-81
2022/08/14 11:30:08;;;;;;;0.90;0.85;;;30.00;46.90;;;;;;5114468;28;20211;-81
2022/08/14 11:32:35;;;;;;;0.95;0.95;;;29.80;47.90;;;;;;5114463;28;20200;-81
2022/08/14 11:35:02;;;;;;;0.75;0.75;;;29.80;47.60;;;;;;5114457;28;20201;-81
2022/08/14 11:37:32;;;;;;;0.90;0.90;;;29.80;47.40;;;;;;5114373;28;20280;-81
2022/08/14 11:39:59;;;;;;;0.85;0.85;;;29.80;47.40;;;;;;5114258;28;20247;-81
2022/08/14 11:42:31;;;;;;;1.02;0.65;;;29.90;46.90;;;;;;5114333;28;20192;-80
2022/08/14 11:45:03;;;;;;;0.70;0.70;;;29.90;47.00;;;;;;5113975;28;20204;-80
2022/08/14 11:47:33;;;;;;;0.85;0.85;;;29.90;46.80;;;;;;5114315;28;20181;-80
2022/08/14 11:49:59;;;;;;;1.08;0.98;;;29.80;46.00;;;;;;5114146;28;20208;-81
2022/08/14 11:52:36;;;;;;;0.90;0.80;;;29.80;46.00;;;;;;5113818;28;20197;-81
2022/08/14 11:55:10;;;;;;;0.85;0.80;;;29.80;46.20;;;;;;5114143;28;20184;-80
2022/08/14 11:57:38;;;;;;;1.00;0.90;;;29.70;46.30;;;;;;5114172;28;20212;-80
2022/08/14 12:00:08;;;;;;;1.67;1.08;;;29.60;47.20;;;;;;5114010;28;20196;-80
2022/08/14 12:02:35;;;;;;;0.65;0.65;;;29.70;45.30;;;;;;5113997;28;20207;-81
2022/08/14 12:05:02;;;;;;;0.80;0.80;;;29.70;45.30;;;;;;5113884;28;20225;-79
2022/08/14 12:07:29;;;;;;;0.60;0.60;;;29.70;44.90;;;;;;5113677;28;20694;-80
2022/08/14 12:09:57;;;;;;;0.60;0.60;;;29.60;45.10;;;;;;5113500;28;20661;-80
2022/08/14 12:12:25;;;;;;;1.02;0.80;;;29.60;45.50;;;;;;5113944;28;20185;-81
2022/08/14 12:14:56;;;;;;;2.70;1.05;;;29.50;45.10;;;;;;5113890;28;20205;-80
2022/08/14 12:17:24;;;;;;;0.82;0.82;;;29.60;44.60;;;;;;5113935;28;20306;-79
2022/08/14 12:19:53;;;;;;;0.80;0.80;;;29.60;44.90;;;;;;5113873;28;20232;-80
2022/08/14 12:22:31;;;;;;;1.00;0.80;;;29.60;45.20;;;;;;5113435;28;20657;-80
2022/08/14 12:24:58;;;;;;;0.60;0.60;;;29.60;45.80;;;;;;5113807;28;20228;-79
2022/08/14 12:27:35;;;;;;;0.80;0.80;;;29.60;45.40;;;;;;5113798;28;20232;-79
2022/08/14 12:30:05;;;;;;;0.65;0.65;;;29.50;45.30;;;;;;5113685;28;20188;-79
2022/08/14 12:32:40;;;;;;;0.50;0.50;;;29.50;43.90;;;;;;5113430;28;20205;-79
2022/08/14 12:35:08;;;;;;;0.70;0.70;;;29.40;43.00;;;;;;5113517;28;20216;-80
2022/08/14 12:37:36;;;;;;;0.50;0.50;;;29.30;42.70;;;;;;5113407;28;20723;-80
2022/08/14 12:40:11;;;;;;;0.77;0.77;;;29.20;44.20;;;;;;5113358;28;20219;-79
2022/08/14 12:42:38;;;;;;;1.13;0.90;;;29.10;43.20;;;;;;5113636;28;20206;-79
2022/08/14 12:45:10;;;;;;;0.70;0.70;;;29.00;43.80;;;;;;5113564;28;20625;-79
2022/08/14 12:47:37;;;;;;;0.70;0.60;;;29.00;44.20;;;;;;5113651;28;20185;-79
2022/08/14 12:50:05;;;;;;;7.45;0.90;;;29.00;44.20;;;;;;5113207;28;20258;-79
2022/08/14 12:52:34;;;;;;;2.05;0.70;;;29.10;44.30;;;;;;5113218;28;20204;-80
2022/08/14 12:55:04;;;;;;;0.55;0.50;;;29.00;43.80;;;;;;5113555;28;20196;-79
2022/08/14 12:57:37;;;;;;;0.70;0.70;;;29.10;43.80;;;;;;5113545;28;20254;-79
2022/08/14 13:00:16;;;;;;;0.60;0.60;;;29.00;43.80;;;;;;5113118;28;20614;-79
2022/08/14 13:02:44;;;;;;;0.77;0.60;;;28.90;44.20;;;;;;5113212;28;20636;-79
2022/08/14 13:05:13;;;;;;;0.70;0.70;;;28.90;45.30;;;;;;5114835;28;20231;-79
2022/08/14 13:07:41;;;;;;;0.73;0.73;;;29.00;44.00;;;;;;5117340;28;20201;-79
2022/08/14 13:10:10;;;;;;;0.63;0.63;;;29.00;44.00;;;;;;5117010;28;20244;-79